sensor_id;sensor_type;location;lat;lon;timestamp;pressure;altitude;pressure_sealevel;temperature;humidity
72055;BME280;59936;51.490;5.436;2023-08-07T00:00:15;101219.13;;;13.33;88.15
72055;BME280;59936;51.490;5.436;2023-08-07T00:05:22;101212.91;;;13.32;88.18
72055;BME280;59936;51.490;5.436;2023-08-07T00:07:52;101215.47;;;13.26;87.91
72055;BME280;59936;51.490;5.436;2023-08-07T00:10:20;101216.44;;;13.33;87.48
72055;BME280;59936;51.490;5.436;2023-08-07T00:12:49;101205.00;;;13.31;87.03
72055;BME280;59936;51.490;5.436;2023-08-07T00:15:17;101208.00;;;13.36;86.78
72055;BME280;59936;51.490;5.436;2023-08-07T00:17:46;101210.53;;;13.46;86.20
72055;BME280;59936;51.490;5.436;2023-08-07T00:20:14;101210.53;;;13.46;86.20
72055;BME280;59936;51.490;5.436;2023-08-07T00:22:43;101212.03;;;13.48;85.90
72055;BME280;59936;51.490;5.436;2023-08-07T00:25:12;101212.50;;;13.52;85.92
72055;BME280;59936;51.490;5.436;2023-08-07T00:27:40;101216.03;;;13.52;85.76
72055;BME280;59936;51.490;5.436;2023-08-07T00:30:09;101231.56;;;13.50;85.35
72055;BME280;59936;51.490;5.436;2023-08-07T00:32:38;101226.97;;;13.51;85.59
72055;BME280;59936;51.490;5.436;2023-08-07T00:35:07;101229.22;;;13.31;87.00
72055;BME280;59936;51.490;5.436;2023-08-07T00:37:36;101237.69;;;13.20;88.02
72055;BME280;59936;51.490;5.436;2023-08-07T00:40:05;101242.44;;;13.10;88.86
72055;BME280;59936;51.490;5.436;2023-08-07T00:42:35;101238.44;;;13.06;89.09
72055;BME280;59936;51.490;5.436;2023-08-07T00:45:04;101233.91;;;12.98;89.95
72055;BME280;59936;51.490;5.436;2023-08-07T00:47:34;101225.66;;;12.99;89.37
72055;BME280;59936;51.490;5.436;2023-08-07T00:50:04;101228.03;;;12.94;89.87
72055;BME280;59936;51.490;5.436;2023-08-07T00:52:33;101234.56;;;12.92;90.28
72055;BME280;59936;51.490;5.436;2023-08-07T00:55:02;101238.44;;;12.89;90.42
72055;BME280;59936;51.490;5.436;2023-08-07T00:57:32;101251.91;;;12.89;90.63
72055;BME280;59936;51.490;5.436;2023-08-07T01:00:01;101248.19;;;12.90;90.54
72055;BME280;59936;51.490;5.436;2023-08-07T01:02:30;101239.13;;;12.91;89.98
72055;BME280;59936;51.490;5.436;2023-08-07T01:04:59;101247.03;;;12.93;89.58
72055;BME280;59936;51.490;5.436;2023-08-07T01:07:28;101232.06;;;12.90;90.18
72055;BME280;59936;51.490;5.436;2023-08-07T01:09:56;101233.75;;;12.91;89.88
72055;BME280;59936;51.490;5.436;2023-08-07T01:12:48;101230.03;;;12.92;89.39
72055;BME280;59936;51.490;5.436;2023-08-07T01:15:30;101230.22;;;12.91;89.75
72055;BME280;59936;51.490;5.436;2023-08-07T01:18:02;101237.94;;;12.94;89.36
72055;BME280;59936;51.490;5.436;2023-08-07T01:20:31;101232.91;;;12.91;90.15
72055;BME280;59936;51.490;5.436;2023-08-07T01:23:00;101238.09;;;12.92;89.84
72055;BME280;59936;51.490;5.436;2023-08-07T01:25:28;101237.94;;;12.94;89.54
72055;BME280;59936;51.490;5.436;2023-08-07T01:28:08;101244.00;;;12.96;89.53
72055;BME280;59936;51.490;5.436;2023-08-07T01:30:49;101244.66;;;12.98;88.84
72055;BME280;59936;51.490;5.436;2023-08-07T01:33:27;101257.59;;;13.03;88.72
72055;BME280;59936;51.490;5.436;2023-08-07T01:36:05;101257.59;;;13.03;88.72
72055;BME280;59936;51.490;5.436;2023-08-07T01:38:36;101259.28;;;13.04;89.06
72055;BME280;59936;51.490;5.436;2023-08-07T01:41:06;101259.28;;;13.04;89.06
72055;BME280;59936;51.490;5.436;2023-08-07T01:43:35;101262.66;;;12.97;89.70
72055;BME280;59936;51.490;5.436;2023-08-07T01:46:03;101251.38;;;13.02;88.95
72055;BME280;59936;51.490;5.436;2023-08-07T01:48:32;101254.41;;;12.99;89.31
72055;BME280;59936;51.490;5.436;2023-08-07T01:51:00;101253.91;;;13.04;88.95
72055;BME280;59936;51.490;5.436;2023-08-07T01:53:29;101258.09;;;13.06;88.60
72055;BME280;59936;51.490;5.436;2023-08-07T01:55:58;101258.09;;;13.06;88.60
72055;BME280;59936;51.490;5.436;2023-08-07T01:58:26;101258.63;;;12.93;88.66
72055;BME280;59936;51.490;5.436;2023-08-07T02:00:55;101257.63;;;12.94;88.64
72055;BME280;59936;51.490;5.436;2023-08-07T02:03:23;101271.91;;;12.95;88.30
72055;BME280;59936;51.490;5.436;2023-08-07T02:05:52;101270.06;;;12.87;88.51
72055;BME280;59936;51.490;5.436;2023-08-07T02:08:20;101263.03;;;12.78;88.99
72055;BME280;59936;51.490;5.436;2023-08-07T02:10:49;101265.03;;;12.76;88.88
72055;BME280;59936;51.490;5.436;2023-08-07T02:13:18;101273.13;;;12.84;88.53
72055;BME280;59936;51.490;5.436;2023-08-07T02:15:46;101263.19;;;12.85;88.40
72055;BME280;59936;51.490;5.436;2023-08-07T02:18:15;101276.13;;;12.81;88.58
72055;BME280;59936;51.490;5.436;2023-08-07T02:20:43;101268.88;;;12.90;88.07
72055;BME280;59936;51.490;5.436;2023-08-07T02:23:12;101273.28;;;12.83;88.42
72055;BME280;59936;51.490;5.436;2023-08-07T02:25:40;101276.66;;;12.85;88.42
72055;BME280;59936;51.490;5.436;2023-08-07T02:28:09;101279.81;;;12.88;88.19
72055;BME280;59936;51.490;5.436;2023-08-07T02:30:38;101279.13;;;12.86;88.40
72055;BME280;59936;51.490;5.436;2023-08-07T02:33:06;101280.47;;;12.90;88.35
72055;BME280;59936;51.490;5.436;2023-08-07T02:35:35;101274.09;;;12.91;88.19
72055;BME280;59936;51.490;5.436;2023-08-07T02:38:03;101263.50;;;12.90;88.40
72055;BME280;59936;51.490;5.436;2023-08-07T02:40:32;101259.97;;;12.89;88.37
72055;BME280;59936;51.490;5.436;2023-08-07T02:43:00;101265.19;;;12.91;88.35
72055;BME280;59936;51.490;5.436;2023-08-07T02:45:29;101271.56;;;12.90;88.47
72055;BME280;59936;51.490;5.436;2023-08-07T02:47:58;101265.69;;;12.94;88.26
72055;BME280;59936;51.490;5.436;2023-08-07T02:50:26;101269.03;;;12.96;88.28
72055;BME280;59936;51.490;5.436;2023-08-07T02:52:55;101264.00;;;12.93;88.64
72055;BME280;59936;51.490;5.436;2023-08-07T02:55:23;101261.66;;;12.90;89.10
72055;BME280;59936;51.490;5.436;2023-08-07T02:57:52;101263.66;;;12.96;88.78
72055;BME280;59936;51.490;5.436;2023-08-07T03:00:20;101255.09;;;13.01;88.45
72055;BME280;59936;51.490;5.436;2023-08-07T03:02:49;101262.97;;;13.03;88.53
72055;BME280;59936;51.490;5.436;2023-08-07T03:05:18;101256.41;;;13.05;88.32
72055;BME280;59936;51.490;5.436;2023-08-07T03:07:46;101261.25;;;13.10;87.90
72055;BME280;59936;51.490;5.436;2023-08-07T03:10:15;101278.06;;;13.12;88.05
72055;BME280;59936;51.490;5.436;2023-08-07T03:12:43;101278.06;;;13.12;88.05
72055;BME280;59936;51.490;5.436;2023-08-07T03:15:12;101282.63;;;13.11;88.35
72055;BME280;59936;51.490;5.436;2023-08-07T03:17:41;101282.63;;;13.11;88.35
72055;BME280;59936;51.490;5.436;2023-08-07T03:20:10;101278.06;;;13.12;88.17
72055;BME280;59936;51.490;5.436;2023-08-07T03:22:38;101274.03;;;13.08;88.40
72055;BME280;59936;51.490;5.436;2023-08-07T03:25:07;101278.06;;;13.12;88.13
72055;BME280;59936;51.490;5.436;2023-08-07T03:27:36;101278.06;;;13.12;88.13
72055;BME280;59936;51.490;5.436;2023-08-07T03:30:05;101265.97;;;13.08;88.25
72055;BME280;59936;51.490;5.436;2023-08-07T03:32:34;101255.72;;;13.11;87.98
72055;BME280;59936;51.490;5.436;2023-08-07T03:35:03;101251.84;;;13.14;87.72
72055;BME280;59936;51.490;5.436;2023-08-07T03:37:32;101255.69;;;13.19;87.59
72055;BME280;59936;51.490;5.436;2023-08-07T03:40:00;101260.06;;;13.20;87.51
72055;BME280;59936;51.490;5.436;2023-08-07T03:42:29;101258.88;;;13.23;87.44
72055;BME280;59936;51.490;5.436;2023-08-07T03:44:57;101253.16;;;13.26;87.56
72055;BME280;59936;51.490;5.436;2023-08-07T03:47:26;101256.84;;;13.25;87.62
72055;BME280;59936;51.490;5.436;2023-08-07T03:49:55;101256.84;;;13.25;87.62
72055;BME280;59936;51.490;5.436;2023-08-07T03:52:23;101252.31;;;13.25;87.34
72055;BME280;59936;51.490;5.436;2023-08-07T03:54:52;101250.28;;;13.27;87.21
72055;BME280;59936;51.490;5.436;2023-08-07T03:57:20;101257.34;;;13.28;87.04
72055;BME280;59936;51.490;5.436;2023-08-07T03:59:49;101255.78;;;13.34;86.58
72055;BME280;59936;51.490;5.436;2023-08-07T04:02:17;101250.25;;;13.35;86.00
72055;BME280;59936;51.490;5.436;2023-08-07T04:04:46;101256.78;;;13.41;85.66
72055;BME280;59936;51.490;5.436;2023-08-07T04:07:15;101252.03;;;13.51;85.26
72055;BME280;59936;51.490;5.436;2023-08-07T04:09:43;101260.13;;;13.51;84.85
72055;BME280;59936;51.490;5.436;2023-08-07T04:12:12;101259.59;;;13.56;84.67
72055;BME280;59936;51.490;5.436;2023-08-07T04:14:40;101268.19;;;13.59;83.20
72055;BME280;59936;51.490;5.436;2023-08-07T04:17:09;101268.19;;;13.59;83.20
72055;BME280;59936;51.490;5.436;2023-08-07T04:19:38;101264.28;;;13.62;83.26
72055;BME280;59936;51.490;5.436;2023-08-07T04:22:06;101268.19;;;13.59;83.38
72055;BME280;59936;51.490;5.436;2023-08-07T04:24:35;101274.56;;;13.58;83.73
72055;BME280;59936;51.490;5.436;2023-08-07T04:27:04;101274.56;;;13.58;83.73
72055;BME280;59936;51.490;5.436;2023-08-07T04:29:32;101268.19;;;13.51;83.80
72055;BME280;59936;51.490;5.436;2023-08-07T04:32:01;101270.06;;;13.51;83.91
72055;BME280;59936;51.490;5.436;2023-08-07T04:34:29;101274.41;;;13.52;84.11
72055;BME280;59936;51.490;5.436;2023-08-07T04:36:58;101279.97;;;13.58;84.17
72055;BME280;59936;51.490;5.436;2023-08-07T04:39:27;101279.97;;;13.58;84.17
72055;BME280;59936;51.490;5.436;2023-08-07T04:41:55;101275.25;;;13.52;84.21
72055;BME280;59936;51.490;5.436;2023-08-07T04:44:24;101281.38;;;13.46;84.15
72055;BME280;59936;51.490;5.436;2023-08-07T04:46:52;101286.59;;;13.48;84.21
72055;BME280;59936;51.490;5.436;2023-08-07T04:49:21;101286.59;;;13.48;84.21
72055;BME280;59936;51.490;5.436;2023-08-07T04:51:49;101281.38;;;13.46;83.97
72055;BME280;59936;51.490;5.436;2023-08-07T04:54:18;101285.03;;;13.53;83.80
72055;BME280;59936;51.490;5.436;2023-08-07T04:56:47;101284.34;;;13.51;83.77
72055;BME280;59936;51.490;5.436;2023-08-07T04:59:15;101285.16;;;13.68;83.72
72055;BME280;59936;51.490;5.436;2023-08-07T05:01:44;101284.13;;;13.69;83.58
72055;BME280;59936;51.490;5.436;2023-08-07T05:04:12;101284.13;;;13.69;83.58
72055;BME280;59936;51.490;5.436;2023-08-07T05:06:41;101285.81;;;13.70;83.37
72055;BME280;59936;51.490;5.436;2023-08-07T05:09:09;101287.78;;;13.76;83.29
72055;BME280;59936;51.490;5.436;2023-08-07T05:11:38;101282.53;;;13.83;82.92
72055;BME280;59936;51.490;5.436;2023-08-07T05:14:07;101291.03;;;13.72;81.68
72055;BME280;59936;51.490;5.436;2023-08-07T05:16:35;101291.31;;;13.77;82.35
72055;BME280;59936;51.490;5.436;2023-08-07T05:19:04;101310.00;;;13.78;82.18
72055;BME280;59936;51.490;5.436;2023-08-07T05:21:32;101310.00;;;13.78;82.18
72055;BME280;59936;51.490;5.436;2023-08-07T05:24:01;101299.75;;;13.74;82.05
72055;BME280;59936;51.490;5.436;2023-08-07T05:26:30;101300.75;;;13.73;81.97
72055;BME280;59936;51.490;5.436;2023-08-07T05:28:58;101314.59;;;13.70;81.94
72055;BME280;59936;51.490;5.436;2023-08-07T05:31:27;101314.59;;;13.70;81.94
72055;BME280;59936;51.490;5.436;2023-08-07T05:33:55;101302.50;;;13.65;82.20
72055;BME280;59936;51.490;5.436;2023-08-07T05:36:24;101314.63;;;13.61;81.98
72055;BME280;59936;51.490;5.436;2023-08-07T05:38:53;101322.38;;;13.56;81.85
72055;BME280;59936;51.490;5.436;2023-08-07T05:41:21;101322.38;;;13.56;81.85
72055;BME280;59936;51.490;5.436;2023-08-07T05:43:50;101317.81;;;13.57;81.96
72055;BME280;59936;51.490;5.436;2023-08-07T05:46:18;101318.66;;;13.57;81.84
72055;BME280;59936;51.490;5.436;2023-08-07T05:48:47;101323.03;;;13.58;81.51
72055;BME280;59936;51.490;5.436;2023-08-07T05:51:16;101326.06;;;13.63;81.43
72055;BME280;59936;51.490;5.436;2023-08-07T05:53:44;101331.41;;;13.72;81.43
72055;BME280;59936;51.490;5.436;2023-08-07T05:56:13;101331.22;;;13.73;81.35
72055;BME280;59936;51.490;5.436;2023-08-07T05:58:41;101340.63;;;13.77;81.41
72055;BME280;59936;51.490;5.436;2023-08-07T06:01:10;101339.50;;;13.72;81.35
72055;BME280;59936;51.490;5.436;2023-08-07T06:03:38;101341.63;;;13.84;81.32
72055;BME280;59936;51.490;5.436;2023-08-07T06:06:07;101341.63;;;13.84;81.32
72055;BME280;59936;51.490;5.436;2023-08-07T06:08:36;101344.97;;;13.86;81.27
72055;BME280;59936;51.490;5.436;2023-08-07T06:11:04;101342.78;;;13.90;80.86
72055;BME280;59936;51.490;5.436;2023-08-07T06:13:33;101338.06;;;13.92;80.58
72055;BME280;59936;51.490;5.436;2023-08-07T06:16:02;101350.44;;;14.01;81.08
72055;BME280;59936;51.490;5.436;2023-08-07T06:18:30;101351.44;;;14.08;81.01
72055;BME280;59936;51.490;5.436;2023-08-07T06:20:59;101350.34;;;14.17;80.30
72055;BME280;59936;51.490;5.436;2023-08-07T06:23:28;101350.44;;;14.32;80.90
72055;BME280;59936;51.490;5.436;2023-08-07T06:25:57;101350.44;;;14.32;80.90
72055;BME280;59936;51.490;5.436;2023-08-07T06:28:25;101360.22;;;14.33;80.00
72055;BME280;59936;51.490;5.436;2023-08-07T06:31:00;101353.06;;;14.40;79.19
72055;BME280;59936;51.490;5.436;2023-08-07T06:33:33;101361.53;;;14.60;79.47
72055;BME280;59936;51.490;5.436;2023-08-07T06:36:03;101356.72;;;14.78;79.45
72055;BME280;59936;51.490;5.436;2023-08-07T06:38:32;101364.56;;;15.02;77.92
72055;BME280;59936;51.490;5.436;2023-08-07T06:41:01;101364.56;;;15.02;77.92
72055;BME280;59936;51.490;5.436;2023-08-07T06:43:29;101370.44;;;15.06;77.12
72055;BME280;59936;51.490;5.436;2023-08-07T06:45:58;101374.84;;;14.84;75.16
72055;BME280;59936;51.490;5.436;2023-08-07T06:48:27;101382.34;;;14.97;75.96
72055;BME280;59936;51.490;5.436;2023-08-07T06:50:56;101390.19;;;15.07;76.04
72055;BME280;59936;51.490;5.436;2023-08-07T06:53:24;101390.19;;;15.07;76.04
72055;BME280;59936;51.490;5.436;2023-08-07T06:55:53;101382.84;;;15.00;76.16
72055;BME280;59936;51.490;5.436;2023-08-07T06:58:21;101373.41;;;14.96;75.44
72055;BME280;59936;51.490;5.436;2023-08-07T07:00:50;101384.59;;;15.08;76.54
72055;BME280;59936;51.490;5.436;2023-08-07T07:03:18;101378.41;;;15.22;76.68
72055;BME280;59936;51.490;5.436;2023-08-07T07:05:49;101375.63;;;15.30;76.28
72055;BME280;59936;51.490;5.436;2023-08-07T07:08:18;101382.72;;;15.61;75.54
72055;BME280;59936;51.490;5.436;2023-08-07T07:10:47;101382.72;;;15.61;75.54
72055;BME280;59936;51.490;5.436;2023-08-07T07:13:15;101391.94;;;15.96;74.20
72055;BME280;59936;51.490;5.436;2023-08-07T07:15:44;101391.94;;;15.96;74.20
72055;BME280;59936;51.490;5.436;2023-08-07T07:18:12;101391.66;;;15.91;74.09
72055;BME280;59936;51.490;5.436;2023-08-07T07:20:41;101402.00;;;16.02;72.37
72055;BME280;59936;51.490;5.436;2023-08-07T07:23:10;101400.22;;;16.24;73.37
72055;BME280;59936;51.490;5.436;2023-08-07T07:25:38;101406.38;;;16.18;72.45
72055;BME280;59936;51.490;5.436;2023-08-07T07:28:07;101403.78;;;16.10;73.49
72055;BME280;59936;51.490;5.436;2023-08-07T07:30:36;101413.19;;;15.99;73.38
72055;BME280;59936;51.490;5.436;2023-08-07T07:33:07;101409.31;;;15.87;73.72
72055;BME280;59936;51.490;5.436;2023-08-07T07:35:39;101405.44;;;15.81;74.16
72055;BME280;59936;51.490;5.436;2023-08-07T07:38:07;101412.44;;;15.76;74.22
72055;BME280;59936;51.490;5.436;2023-08-07T07:40:36;101418.50;;;15.78;74.27
72055;BME280;59936;51.490;5.436;2023-08-07T07:43:05;101417.94;;;15.82;73.93
72055;BME280;59936;51.490;5.436;2023-08-07T07:45:34;101426.44;;;15.94;74.03
72055;BME280;59936;51.490;5.436;2023-08-07T07:48:03;101410.69;;;15.97;73.12
72055;BME280;59936;51.490;5.436;2023-08-07T07:50:32;101420.72;;;16.18;73.45
72055;BME280;59936;51.490;5.436;2023-08-07T07:53:00;101431.25;;;16.28;70.97
72055;BME280;59936;51.490;5.436;2023-08-07T07:55:29;101427.75;;;16.49;70.33
72055;BME280;59936;51.490;5.436;2023-08-07T07:57:58;101439.22;;;16.51;71.49
72055;BME280;59936;51.490;5.436;2023-08-07T08:00:26;101439.22;;;16.51;71.49
72055;BME280;59936;51.490;5.436;2023-08-07T08:02:55;101440.88;;;16.30;71.30
72055;BME280;59936;51.490;5.436;2023-08-07T08:05:23;101435.56;;;16.22;71.30
72055;BME280;59936;51.490;5.436;2023-08-07T08:07:52;101445.38;;;16.09;70.21
72055;BME280;59936;51.490;5.436;2023-08-07T08:10:21;101444.97;;;16.26;72.44
72055;BME280;59936;51.490;5.436;2023-08-07T08:12:49;101456.19;;;17.72;71.51
72055;BME280;59936;51.490;5.436;2023-08-07T08:15:18;101456.19;;;17.72;71.51
72055;BME280;59936;51.490;5.436;2023-08-07T08:17:47;101445.44;;;18.94;67.09
72055;BME280;59936;51.490;5.436;2023-08-07T08:20:16;101452.16;;;19.58;64.93
72055;BME280;59936;51.490;5.436;2023-08-07T08:22:45;101449.19;;;19.99;62.38
72055;BME280;59936;51.490;5.436;2023-08-07T08:25:14;101442.28;;;20.47;61.13
72055;BME280;59936;51.490;5.436;2023-08-07T08:27:43;101443.13;;;21.17;58.60
72055;BME280;59936;51.490;5.436;2023-08-07T08:30:12;101450.56;;;21.78;57.20
72055;BME280;59936;51.490;5.436;2023-08-07T08:32:40;101450.56;;;21.78;57.20
72055;BME280;59936;51.490;5.436;2023-08-07T08:35:09;101439.97;;;21.45;58.22
72055;BME280;59936;51.490;5.436;2023-08-07T08:37:37;101439.97;;;21.45;58.22
72055;BME280;59936;51.490;5.436;2023-08-07T08:40:08;101444.25;;;20.78;59.23
72055;BME280;59936;51.490;5.436;2023-08-07T08:42:40;101474.41;;;18.74;58.08
72055;BME280;59936;51.490;5.436;2023-08-07T08:45:09;101474.41;;;18.74;58.08
72055;BME280;59936;51.490;5.436;2023-08-07T08:47:43;101459.25;;;19.92;55.28
72055;BME280;59936;51.490;5.436;2023-08-07T08:50:13;101464.69;;;19.59;54.91
72055;BME280;59936;51.490;5.436;2023-08-07T08:52:44;101457.72;;;20.09;55.36
72055;BME280;59936;51.490;5.436;2023-08-07T08:55:13;101472.44;;;19.62;56.47
72055;BME280;59936;51.490;5.436;2023-08-07T08:57:42;101469.22;;;18.79;56.96
72055;BME280;59936;51.490;5.436;2023-08-07T09:00:11;101474.03;;;18.29;58.99
72055;BME280;59936;51.490;5.436;2023-08-07T09:02:46;101475.56;;;18.38;59.60
72055;BME280;59936;51.490;5.436;2023-08-07T09:05:18;101475.56;;;18.38;59.60
72055;BME280;59936;51.490;5.436;2023-08-07T09:07:48;101474.53;;;19.93;55.13
72055;BME280;59936;51.490;5.436;2023-08-07T09:10:17;101471.66;;;20.39;51.75
72055;BME280;59936;51.490;5.436;2023-08-07T09:12:54;101473.91;;;20.93;52.92
72055;BME280;59936;51.490;5.436;2023-08-07T09:15:29;101477.38;;;21.63;47.58
72055;BME280;59936;51.490;5.436;2023-08-07T09:18:05;101478.22;;;21.82;50.83
72055;BME280;59936;51.490;5.436;2023-08-07T09:20:35;101472.09;;;21.87;49.56
72055;BME280;59936;51.490;5.436;2023-08-07T09:23:05;101481.91;;;21.51;50.28
72055;BME280;59936;51.490;5.436;2023-08-07T09:25:35;101487.22;;;20.76;52.39
72055;BME280;59936;51.490;5.436;2023-08-07T09:28:05;101485.56;;;20.04;53.89
72055;BME280;59936;51.490;5.436;2023-08-07T09:30:35;101499.81;;;19.60;54.55
72055;BME280;59936;51.490;5.436;2023-08-07T09:33:04;101486.81;;;20.08;53.84
72055;BME280;59936;51.490;5.436;2023-08-07T09:35:33;101483.44;;;21.34;52.25
72055;BME280;59936;51.490;5.436;2023-08-07T09:38:01;101476.97;;;22.21;49.64
72055;BME280;59936;51.490;5.436;2023-08-07T09:40:30;101486.00;;;22.40;49.24
72055;BME280;59936;51.490;5.436;2023-08-07T09:43:01;101493.75;;;21.81;48.91
72055;BME280;59936;51.490;5.436;2023-08-07T09:45:30;101492.72;;;21.58;47.95
72055;BME280;59936;51.490;5.436;2023-08-07T09:48:03;101488.53;;;21.80;49.13
72055;BME280;59936;51.490;5.436;2023-08-07T09:50:32;101485.56;;;21.63;49.53
72055;BME280;59936;51.490;5.436;2023-08-07T09:53:01;101502.22;;;21.24;50.26
72055;BME280;59936;51.490;5.436;2023-08-07T09:55:30;101502.22;;;21.24;50.26
72055;BME280;59936;51.490;5.436;2023-08-07T09:58:01;101505.47;;;20.69;51.27
72055;BME280;59936;51.490;5.436;2023-08-07T10:00:34;101499.97;;;20.82;50.87
72055;BME280;59936;51.490;5.436;2023-08-07T10:03:04;101513.72;;;21.57;47.47
72055;BME280;59936;51.490;5.436;2023-08-07T10:05:35;101501.41;;;21.73;45.74
72055;BME280;59936;51.490;5.436;2023-08-07T10:08:03;101506.75;;;21.86;48.26
72055;BME280;59936;51.490;5.436;2023-08-07T10:10:32;101493.22;;;22.16;46.77
72055;BME280;59936;51.490;5.436;2023-08-07T10:13:01;101502.69;;;21.70;46.69
72055;BME280;59936;51.490;5.436;2023-08-07T10:15:31;101510.38;;;21.98;47.25
72055;BME280;59936;51.490;5.436;2023-08-07T10:18:01;101513.81;;;21.94;47.29
72055;BME280;59936;51.490;5.436;2023-08-07T10:20:30;101524.00;;;21.24;47.19
72055;BME280;59936;51.490;5.436;2023-08-07T10:23:04;101517.22;;;20.57;46.40
72055;BME280;59936;51.490;5.436;2023-08-07T10:25:39;101525.09;;;20.85;48.40
72055;BME280;59936;51.490;5.436;2023-08-07T10:28:12;101514.00;;;20.79;47.28
72055;BME280;59936;51.490;5.436;2023-08-07T10:30:44;101514.00;;;20.86;47.38
72055;BME280;59936;51.490;5.436;2023-08-07T10:33:15;101521.69;;;21.27;46.60
72055;BME280;59936;51.490;5.436;2023-08-07T10:35:46;101518.09;;;21.83;46.13
72055;BME280;59936;51.490;5.436;2023-08-07T10:38:19;101517.94;;;22.39;44.84
72055;BME280;59936;51.490;5.436;2023-08-07T10:43:30;101537.38;;;21.63;45.30
72055;BME280;59936;51.490;5.436;2023-08-07T10:46:03;101537.38;;;21.63;45.30
72055;BME280;59936;51.490;5.436;2023-08-07T10:48:40;101532.31;;;21.04;46.30
72055;BME280;59936;51.490;5.436;2023-08-07T10:51:19;101527.28;;;20.56;47.29
72055;BME280;59936;51.490;5.436;2023-08-07T10:53:49;101538.63;;;20.98;47.02
72055;BME280;59936;51.490;5.436;2023-08-07T10:56:29;101528.75;;;21.66;47.09
72055;BME280;59936;51.490;5.436;2023-08-07T10:59:10;101535.13;;;21.78;45.62
72055;BME280;59936;51.490;5.436;2023-08-07T11:01:43;101542.09;;;21.74;43.57
72055;BME280;59936;51.490;5.436;2023-08-07T11:04:18;101547.63;;;22.11;45.64
72055;BME280;59936;51.490;5.436;2023-08-07T11:06:48;101543.00;;;22.36;45.07
72055;BME280;59936;51.490;5.436;2023-08-07T11:09:16;101531.50;;;22.28;44.05
72055;BME280;59936;51.490;5.436;2023-08-07T11:11:46;101545.06;;;22.16;43.97
72055;BME280;59936;51.490;5.436;2023-08-07T11:14:18;101533.31;;;21.72;43.96
72055;BME280;59936;51.490;5.436;2023-08-07T11:16:48;101543.25;;;22.10;44.61
72055;BME280;59936;51.490;5.436;2023-08-07T11:19:18;101543.25;;;22.10;44.61
72055;BME280;59936;51.490;5.436;2023-08-07T11:21:47;101539.34;;;22.17;42.19
72055;BME280;59936;51.490;5.436;2023-08-07T11:24:16;101547.44;;;21.63;44.22
72055;BME280;59936;51.490;5.436;2023-08-07T11:26:45;101538.31;;;21.50;45.67
72055;BME280;59936;51.490;5.436;2023-08-07T11:29:20;101541.38;;;21.61;45.17
72055;BME280;59936;51.490;5.436;2023-08-07T11:31:49;101539.22;;;21.06;45.42
72055;BME280;59936;51.490;5.436;2023-08-07T11:34:21;101546.69;;;20.79;46.43
72055;BME280;59936;51.490;5.436;2023-08-07T11:36:50;101558.78;;;20.26;47.15
72055;BME280;59936;51.490;5.436;2023-08-07T11:39:18;101554.38;;;20.25;47.53
72055;BME280;59936;51.490;5.436;2023-08-07T11:41:47;101540.91;;;21.07;47.24
72055;BME280;59936;51.490;5.436;2023-08-07T11:44:15;101540.91;;;21.07;47.24
72055;BME280;59936;51.490;5.436;2023-08-07T11:46:44;101545.59;;;20.87;47.40
72055;BME280;59936;51.490;5.436;2023-08-07T11:49:13;101542.09;;;20.73;47.74
72055;BME280;59936;51.490;5.436;2023-08-07T11:51:42;101544.13;;;20.33;48.16
72055;BME280;59936;51.490;5.436;2023-08-07T11:54:14;101545.41;;;20.18;48.10
72055;BME280;59936;51.490;5.436;2023-08-07T11:56:43;101537.75;;;20.59;46.96
72055;BME280;59936;51.490;5.436;2023-08-07T11:59:18;101533.88;;;20.87;47.84
72055;BME280;59936;51.490;5.436;2023-08-07T12:01:47;101537.69;;;20.79;45.69
72055;BME280;59936;51.490;5.436;2023-08-07T12:04:17;101535.41;;;20.69;48.43
72055;BME280;59936;51.490;5.436;2023-08-07T12:06:53;101535.41;;;20.69;48.43
72055;BME280;59936;51.490;5.436;2023-08-07T12:09:23;101529.38;;;20.61;46.08
72055;BME280;59936;51.490;5.436;2023-08-07T12:11:59;101537.63;;;20.34;48.84
72055;BME280;59936;51.490;5.436;2023-08-07T12:14:28;101534.72;;;20.23;49.31
72055;BME280;59936;51.490;5.436;2023-08-07T12:17:01;101545.84;;;20.08;49.78
72055;BME280;59936;51.490;5.436;2023-08-07T12:19:37;101549.00;;;19.78;49.71
72055;BME280;59936;51.490;5.436;2023-08-07T12:22:07;101558.16;;;19.44;48.97
72055;BME280;59936;51.490;5.436;2023-08-07T12:24:40;101556.47;;;19.37;51.10
72055;BME280;59936;51.490;5.436;2023-08-07T12:27:15;101561.03;;;19.17;52.82
72055;BME280;59936;51.490;5.436;2023-08-07T12:29:43;101554.75;;;19.03;54.09
72055;BME280;59936;51.490;5.436;2023-08-07T12:32:18;101562.38;;;19.80;54.63
72055;BME280;59936;51.490;5.436;2023-08-07T12:34:51;101562.38;;;19.80;54.63
72055;BME280;59936;51.490;5.436;2023-08-07T12:37:28;101549.81;;;20.19;53.20
72055;BME280;59936;51.490;5.436;2023-08-07T12:40:01;101547.31;;;20.10;53.13
72055;BME280;59936;51.490;5.436;2023-08-07T12:42:35;101550.97;;;18.97;55.88
72055;BME280;59936;51.490;5.436;2023-08-07T12:45:04;101550.97;;;18.97;55.88
72055;BME280;59936;51.490;5.436;2023-08-07T12:47:32;101567.16;;;18.77;56.16
72055;BME280;59936;51.490;5.436;2023-08-07T12:50:01;101571.72;;;18.29;57.35
72055;BME280;59936;51.490;5.436;2023-08-07T12:52:30;101554.00;;;18.33;57.10
72055;BME280;59936;51.490;5.436;2023-08-07T12:54:58;101560.38;;;18.54;57.15
72055;BME280;59936;51.490;5.436;2023-08-07T12:57:27;101560.38;;;18.54;57.15
72055;BME280;59936;51.490;5.436;2023-08-07T12:59:56;101556.59;;;18.96;56.72
72055;BME280;59936;51.490;5.436;2023-08-07T13:02:24;101556.59;;;18.96;56.72
72055;BME280;59936;51.490;5.436;2023-08-07T13:04:53;101557.53;;;19.42;56.53
72055;BME280;59936;51.490;5.436;2023-08-07T13:07:21;101563.00;;;19.69;55.85